This is the latest recevied weather packets stored in our database for station/object M0CJS. If no packets are shown the sender has not sent any weather packets the latest 10 day(s).
| Time | Temp. | Humidity | Pressure | Rain* | Wind** | Luminosity | Snow |
|---|---|---|---|---|---|---|---|
| 1776981917 | 6.11° C | 89% | 1031.1 hPa | 0 mm | - | - | - |
| 1776977717 | 7.78° C | 83% | 1030.9 hPa | 0 mm | - | - | - |
| 1776974117 | 9.44° C | 75% | 1030.7 hPa | 0 mm | - | - | - |
| 1776971717 | 11.11° C | 68% | 1030.6 hPa | 0 mm | - | - | - |
| 1776971117 | 11.67° C | 67% | 1030.5 hPa | 0 mm | - | - | - |
| 1776963917 | 15.56° C | 48% | 1030.7 hPa | 0 mm | - | - | - |
| 1776954317 | 16.11° C | 61% | 1031.9 hPa | 0 mm | - | - | - |
| 1776952516 | 15.56° C | 60% | 1032.3 hPa | 0 mm | - | - | - |
| 1776951916 | 16.11° C | 58% | 1032.5 hPa | 0 mm | - | - | - |
| 1776943516 | 13.33° C | 69% | 1033.3 hPa | 0 mm | - | - | - |
| 1776942316 | 12.78° C | 70% | 1033.2 hPa | 0 mm | - | - | - |
| 1776941136 | 12.78° C | 70% | 1033.5 hPa | 0 mm | - | - | - |
| 1776940559 | 12.22° C | 70% | 1033.6 hPa | 0 mm | - | - | - |
| 1776939317 | 11.67° C | 71% | 1033.6 hPa | 0 mm | - | - | - |
| 1776935716 | 10.56° C | 75% | 1033.7 hPa | 0 mm | - | - | - |
| 1776929117 | 6.67° C | 88% | 1033.5 hPa | 0 mm | - | - | - |
| 1776927317 | 6.67° C | 88% | 1033.4 hPa | 0 mm | - | - | - |
| 1776923717 | 5.56° C | 94% | 1032.9 hPa | 0 mm | - | - | - |
| 1776923117 | 5° C | 95% | 1032.9 hPa | 0 mm | - | - | - |
| 1776921919 | 5° C | 95% | 1032.8 hPa | 0 mm | - | - | - |
| 1776917739 | 5° C | 95% | 1032.3 hPa | 0 mm | - | - | - |
| 1776912917 | 5° C | 95% | 1032.6 hPa | 0 mm | - | - | - |
| 1776912317 | 5° C | 95% | 1032.6 hPa | 0 mm | - | - | - |
| 1776911717 | 5° C | 95% | 1032.6 hPa | 0 mm | - | - | - |
| 1776907517 | 5.56° C | 94% | 1032.3 hPa | 0 mm | - | - | - |
* Rain latest hour (hover to see other rain measurements)
** Current wind speed in m/s (hover to see current wind gust speed)